AUA736D LYPG-LOWW
Flight info
| Callsign | AUA736D |
|---|---|
| Flight time | N/A |
| Altitude | 38000 |
| Route | NIK DCT GACMO DCT RIVUS DCT BOSNA DCT OBUTI OBUTI2W |
| Aircraft | B738/M-SDE2E3FGHIRWXY/LB1 |
Departure
| Time | 2026-05-07 08:10 |
|---|---|
| Airport | Podgorica Airport / Podgorica Golubovci Airbase (LYPG) |
Arrival
| Time | N/A |
|---|---|
| Airport | Vienna International Airport (LOWW) |
| Time | Latitude | Longitude | Altitude | Speed | Heading |
|---|---|---|---|---|---|
| 2026-05-07 08:04 | 42.36586 | 19.24799 | 111 ft | 0 kts | 315° |
| 2026-05-07 08:05 | 42.36591 | 19.24797 | 111 ft | 3 kts | 342° |
| 2026-05-07 08:05 | 42.36627 | 19.24808 | 111 ft | 5 kts | 14° |
| 2026-05-07 08:05 | 42.36666 | 19.24818 | 111 ft | 7 kts | 7° |
| 2026-05-07 08:06 | 42.36721 | 19.24828 | 111 ft | 9 kts | 5° |
| 2026-05-07 08:06 | 42.36794 | 19.24829 | 111 ft | 11 kts | 356° |
| 2026-05-07 08:06 | 42.36871 | 19.24844 | 112 ft | 11 kts | 10° |
| 2026-05-07 08:06 | 42.36925 | 19.24908 | 114 ft | 10 kts | 75° |
| 2026-05-07 08:07 | 42.36940 | 19.25011 | 115 ft | 10 kts | 51° |
| 2026-05-07 08:07 | 42.37015 | 19.25051 | 116 ft | 12 kts | 7° |
| 2026-05-07 08:07 | 42.37075 | 19.25104 | 118 ft | 15 kts | 59° |
| 2026-05-07 08:07 | 42.37079 | 19.25186 | 118 ft | 0 kts | 108° |
| 2026-05-07 08:08 | 42.37076 | 19.25197 | 118 ft | 5 kts | 120° |
| 2026-05-07 08:08 | 42.37046 | 19.25270 | 120 ft | 6 kts | 126° |
| 2026-05-07 08:09 | 42.36991 | 19.25291 | 120 ft | 26 kts | 178° |
| 2026-05-07 08:09 | 42.36518 | 19.25249 | 113 ft | 108 kts | 184° |
| 2026-05-07 08:09 | 42.35516 | 19.25149 | 118 ft | 174 kts | 184° |
| 2026-05-07 08:09 | 42.34199 | 19.25136 | 339 ft | 210 kts | 182° |
| 2026-05-07 08:10 | 42.32647 | 19.25503 | 463 ft | 247 kts | 154° |
| 2026-05-07 08:10 | 42.31274 | 19.26810 | 389 ft | 236 kts | 129° |
| 2026-05-07 08:10 | 42.30178 | 19.28258 | 702 ft | 201 kts | 148° |
| 2026-05-07 08:10 | 42.28921 | 19.29006 | 1112 ft | 199 kts | 168° |
| 2026-05-07 08:11 | 42.27501 | 19.28941 | 1415 ft | 205 kts | 184° |
| 2026-05-07 08:11 | 42.25995 | 19.29123 | 707 ft | 229 kts | 178° |
| 2026-05-07 08:11 | 42.24480 | 19.28601 | 79 ft | 236 kts | 220° |
| 2026-05-07 08:11 | 42.23441 | 19.27190 | 476 ft | 202 kts | 235° |
| 2026-05-07 08:12 | 42.22907 | 19.25538 | 765 ft | 180 kts | 255° |
| 2026-05-07 08:12 | 42.22742 | 19.23747 | 690 ft | 207 kts | 273° |
| 2026-05-07 08:12 | 42.22860 | 19.21938 | 908 ft | 182 kts | 257° |
| 2026-05-07 08:12 | 42.22900 | 19.20192 | 1143 ft | 196 kts | 294° |